CheckWX is a tool to help pilots better visualize weather data.  It is not intended as a substitute for an official pre-flight weather briefing.

05:17:23 UTC

DAAS METAR
Ain Arnat Airport
Sétif, Algeria
Current

1 hour ago

DAAS 200400Z 02005KT CAVOK 01/M04 Q1020
Observed
Feb-20 @ 04:00 UTC
Wind
  • 020° at 5 KTS
Visibility
10,000+ meters
Flight Rules
VFR
Cloud Levels
  • Clear skies
Temperature
C / 34°F
Dewpoint
-4°C / 25°F
Humidity
70%
Altimeter
30.12" Hg
Pressure
1019.92 hPa
Previous

2 hours ago

DAAS 200300Z 02005KT CAVOK 01/M04 Q1020
Observed
Feb-20 @ 03:00 UTC
Wind
  • 020° at 5 KTS
Visibility
10,000+ meters
Flight Rules
VFR
Cloud Levels
  • Clear skies
Temperature
C / 34°F
Dewpoint
-4°C / 25°F
Humidity
70%
Altimeter
30.12" Hg
Pressure
1019.92 hPa
Previous

3 hours ago

DAAS 200200Z 02004KT CAVOK 01/M05 Q1021
Observed
Feb-20 @ 02:00 UTC
Wind
  • 020° at 4 KTS
Visibility
10,000+ meters
Flight Rules
VFR
Cloud Levels
  • Clear skies
Temperature
C / 34°F
Dewpoint
-5°C / 23°F
Humidity
65%
Altimeter
30.15" Hg
Pressure
1020.92 hPa